KMKE

General Mitchell International Airport

Milwaukee, Wisconsin, USA
METAR KMKE 242052Z 11011KT 10SM BKN011 OVC015 19/17 A2996 RMK AO2 SLP142 T01890167 56030
Observed Flight Rules
Sep-24 @ 20:52 UTC (30 minutes ago) Marginal Visual Flight Rules
Wind Visibility Clouds
110° at 11 knots 10 miles
  • Broken at 1,100' AGL
  • Overcast at 1,500' AGL
Temperatures Readings
Current 19°C / 66°F
Dewpoint 17°C / 63°F
Humidity 88%
Altimeter 29.96" Hg
Pressure 1014.2 hPa
Elevation 206
METAR KMKE 242052Z 11011KT 10SM BKN011 OVC015 19/17 A2996 RMK AO2 SLP142 T01890167 56030
Observed Flight Rules
Sep-24 @ 20:52 UTC
(30 minutes ago)
MVFR
Wind Visibility
110° at 11 knots 10 miles
Clouds
  • Broken at 1,100' AGL
  • Overcast at 1,500' AGL
Temperature Dewpoint
19°C / 66°F 17°C / 63°F
Humidity Altimeter Pressure
88% 29.96" Hg 1014.2 hPa